Time;durP1;ratioP1;P1;durP2;ratioP2;P2;SDS_P1;SDS_P2;PMS_P1;PMS_P2;Temp;Humidity;BMP_temperature;BMP_pressure;BME280_temperature;BME280_humidity;BME280_pressure;Samples;Min_cycle;Max_cycle;Signal;HPM_P1;HPM_P2
2024/01/09 00:01:15;;;;;;;13.43;13.03;;;;;;;-141.02;100.00;51181.81;5112664;28;20299;-74
2024/01/09 00:03:44;;;;;;;12.37;11.97;;;;;;;-141.02;100.00;50606.44;5113061;28;20280;-74
2024/01/09 00:06:15;;;;;;;12.53;12.13;;;;;;;-141.02;100.00;51039.41;5116405;28;20228;-74
2024/01/09 00:08:42;;;;;;;13.23;12.83;;;;;;;-141.02;100.00;50714.19;5116773;28;20284;-74
2024/01/09 00:11:12;;;;;;;13.00;12.60;;;;;;;-141.02;100.00;50233.16;5116331;28;20285;-74
2024/01/09 00:13:39;;;;;;;14.77;14.27;;;;;;;-141.02;100.00;50537.16;5116686;28;20292;-74
2024/01/09 00:16:08;;;;;;;14.60;14.10;;;;;;;-141.02;100.00;50169.66;5116225;28;20233;-74
2024/01/09 00:18:35;;;;;;;13.43;13.03;;;;;;;-141.02;100.00;50246.63;5116190;28;20239;-74
2024/01/09 00:21:02;;;;;;;14.00;13.50;;;;;;;-141.02;100.00;50173.53;5116395;28;20289;-75
2024/01/09 00:23:29;;;;;;;13.20;12.80;;;;;;;-141.02;100.00;50144.66;5116522;28;20272;-75
2024/01/09 00:25:55;;;;;;;12.97;12.57;;;;;;;-141.02;100.00;49931.13;5116139;28;20279;-74
2024/01/09 00:28:22;;;;;;;14.70;14.20;;;;;;;-141.02;100.00;49892.63;5116382;28;20284;-75
2024/01/09 00:30:49;;;;;;;14.33;13.83;;;;;;;-141.02;100.00;50246.63;5116406;28;20204;-74
2024/01/09 00:33:17;;;;;;;12.93;12.53;;;;;;;-141.02;100.00;49711.81;5116295;28;20199;-74
2024/01/09 00:35:50;;;;;;;24.67;22.90;;;;;;;-141.02;100.00;49925.34;5116238;28;20232;-75
2024/01/09 00:38:16;;;;;;;14.37;13.87;;;;;;;-141.02;100.00;49983.06;5115828;28;20320;-75
2024/01/09 00:40:44;;;;;;;13.77;13.37;;;;;;;-141.02;100.00;50140.81;5116180;28;20275;-74
2024/01/09 00:43:11;;;;;;;14.47;13.97;;;;;;;-141.02;100.00;51618.69;5115784;28;20642;-75
2024/01/09 00:45:38;;;;;;;13.93;13.53;;;;;;;-141.02;100.00;50308.19;5115935;28;20224;-75
2024/01/09 00:48:07;;;;;;;14.67;14.17;;;;;;;-141.02;100.00;50492.91;5116064;28;20193;-75
2024/01/09 00:50:35;;;;;;;12.20;11.80;;;;;;;-141.02;100.00;50283.19;5115828;28;20193;-75
2024/01/09 00:53:02;;;;;;;13.40;13.00;;;;;;;-141.02;100.00;50354.38;5115598;28;20196;-74
2024/01/09 00:55:29;;;;;;;13.73;13.33;;;;;;;-141.02;100.00;50273.56;5115908;28;20551;-75
2024/01/09 00:57:56;;;;;;;14.13;13.73;;;;;;;-141.02;100.00;50381.31;5115736;28;20315;-75
2024/01/09 01:00:23;;;;;;;14.03;13.63;;;;;;;-141.02;100.00;50527.53;5115531;28;20196;-75
2024/01/09 01:02:50;;;;;;;14.23;13.83;;;;;;;-141.02;100.00;50654.53;5115747;28;20276;-75
2024/01/09 01:05:17;;;;;;;13.47;13.07;;;;;;;-141.02;100.00;50972.03;5115719;28;20193;-75
2024/01/09 01:07:46;;;;;;;13.63;13.23;;;;;;;-141.02;100.00;51199.13;5115633;28;20276;-74
2024/01/09 01:10:13;;;;;;;14.30;13.80;;;;;;;-141.02;100.00;51343.47;5115550;28;20197;-74
2024/01/09 01:12:40;;;;;;;14.63;14.13;;;;;;;-141.02;100.00;51616.78;5115543;28;20618;-75
2024/01/09 01:15:08;;;;;;;14.07;13.67;;;;;;;-141.02;100.00;51668.75;5114812;28;20231;-75
2024/01/09 01:17:35;;;;;;;13.53;13.13;;;;;;;-141.02;100.00;51955.56;5115475;28;20335;-75
2024/01/09 01:20:02;;;;;;;14.20;13.80;;;;;;;-141.02;100.00;52467.63;5115337;28;20280;-74
2024/01/09 01:22:29;;;;;;;59.23;54.37;;;;;;;-141.02;100.00;53705.78;5115305;28;20189;-75
2024/01/09 01:24:57;;;;;;;13.40;13.00;;;;;;;-141.02;100.00;52696.75;5114996;28;20730;-75
2024/01/09 01:27:24;;;;;;;13.80;13.40;;;;;;;-141.02;100.00;52540.78;5114958;28;20188;-75
2024/01/09 01:29:51;;;;;;;13.40;13.00;;;;;;;-141.02;100.00;53083.75;5115280;28;20197;-75
2024/01/09 01:32:18;;;;;;;13.60;13.20;;;;;;;-141.02;100.00;53326.38;5114798;28;20193;-74
2024/01/09 01:34:46;;;;;;;13.33;12.93;;;;;;;-141.02;100.00;53619.13;5114785;28;20203;-75
2024/01/09 01:37:13;;;;;;;13.37;12.97;;;;;;;-141.02;100.00;53811.72;5114765;28;20189;-74
2024/01/09 01:39:40;;;;;;;12.03;11.63;;;;;;;-141.02;100.00;53401.50;5115018;28;20193;-75
2024/01/09 01:42:08;;;;;;;12.33;11.93;;;;;;;-141.02;100.00;53892.59;5114714;28;20709;-75
2024/01/09 01:44:35;;;;;;;12.30;11.90;;;;;;;-141.02;100.00;55279.63;5114912;28;20280;-75
2024/01/09 01:47:02;;;;;;;12.27;11.87;;;;;;;-141.02;100.00;57006.53;5114643;28;20232;-74
2024/01/09 01:49:29;;;;;;;11.63;11.33;;;;;;;-141.02;100.00;56513.03;5114912;28;20280;-75
2024/01/09 01:51:56;;;;;;;11.03;10.73;;;;;;;-141.02;100.00;56759.78;5114810;28;20209;-75
2024/01/09 01:54:24;;;;;;;12.60;12.20;;;;;;;-141.02;100.00;54668.88;5114800;28;20228;-75
2024/01/09 01:56:53;;;;;;;12.73;12.33;;;;;;;-141.02;100.00;54474.31;5114411;28;20690;-75
2024/01/09 01:59:23;;;;;;;12.57;12.17;;;;;;;-141.02;100.00;54532.09;5114648;28;20313;-75
2024/01/09 02:01:51;;;;;;;12.67;12.27;;;;;;;-141.02;100.00;55033.00;5114333;28;20731;-74
2024/01/09 02:04:20;;;;;;;13.63;13.23;;;;;;;-141.02;100.00;55526.28;5114250;28;20284;-74
2024/01/09 02:06:47;;;;;;;13.67;13.27;;;;;;;-141.02;100.00;54079.44;5114186;28;20197;-74
2024/01/09 02:09:15;;;;;;;13.40;13.00;;;;;;;-141.02;100.00;53576.75;5114157;28;20200;-74
2024/01/09 02:11:42;;;;;;;14.07;13.67;;;;;;;-141.02;100.00;54299.03;5114408;28;20201;-74
2024/01/09 02:14:09;;;;;;;13.43;13.03;;;;;;;-141.02;100.00;54042.84;5114073;28;20193;-75
2024/01/09 02:16:37;;;;;;;14.60;14.10;;;;;;;-141.02;100.00;53873.34;5113993;28;20193;-74
2024/01/09 02:19:04;;;;;;;14.37;13.87;;;;;;;-141.02;100.00;53330.25;5113795;28;20312;-75
2024/01/09 02:21:31;;;;;;;14.00;13.60;;;;;;;-141.02;100.00;54004.31;5113997;28;20203;-74
2024/01/09 02:23:58;;;;;;;13.37;12.97;;;;;;;-141.02;100.00;54786.41;5113903;28;20204;-74
2024/01/09 02:26:31;;;;;;;17.77;17.07;;;;;;;-141.02;100.00;55033.00;5113176;28;20285;-74
2024/01/09 02:29:05;;;;;;;16.20;15.57;;;;;;;-141.02;100.00;54166.09;5114501;28;20208;-74
2024/01/09 02:31:34;;;;;;;13.40;13.00;;;;;;;-141.02;100.00;53260.91;5114038;28;20199;-74
2024/01/09 02:34:01;;;;;;;14.33;13.93;;;;;;;-141.02;100.00;52735.25;5113978;28;20223;-75
2024/01/09 02:36:28;;;;;;;13.60;13.20;;;;;;;-141.02;100.00;52773.75;5113611;28;20201;-74
2024/01/09 02:38:55;;;;;;;14.20;13.80;;;;;;;-141.02;100.00;53126.13;5113481;28;20233;-74
2024/01/09 02:41:22;;;;;;;13.40;13.00;;;;;;;-141.02;100.00;52767.97;5113815;28;20235;-74
2024/01/09 02:43:49;;;;;;;13.70;13.30;;;;;;;-141.02;100.00;52683.25;5113751;28;20193;-74
2024/01/09 02:46:17;;;;;;;12.70;12.30;;;;;;;-141.02;100.00;52587.00;5113461;28;20200;-74
2024/01/09 02:48:45;;;;;;;12.57;12.17;;;;;;;-141.02;100.00;51137.56;5113308;28;20638;-74
2024/01/09 02:51:12;;;;;;;14.00;13.60;;;;;;;-141.02;100.00;49998.44;5113370;28;20686;-74
2024/01/09 02:53:39;;;;;;;15.97;15.37;;;;;;;-141.02;100.00;49346.34;5113568;28;20197;-74
2024/01/09 02:56:07;;;;;;;16.80;16.20;;;;;;;-141.02;100.00;49157.84;5113499;28;20197;-74
2024/01/09 02:58:34;;;;;;;17.30;16.70;;;;;;;-141.02;100.00;48388.59;5113430;28;20285;-74
2024/01/09 03:01:01;;;;;;;18.33;17.63;;;;;;;-141.02;100.00;48417.44;5113148;28;20681;-75
2024/01/09 03:03:28;;;;;;;20.20;19.40;;;;;;;-141.02;100.00;48373.19;5113464;28;20254;-74
2024/01/09 03:05:56;;;;;;;18.17;17.47;;;;;;;-141.02;100.00;47521.47;5113303;28;20232;-74
2024/01/09 03:08:23;;;;;;;18.27;17.57;;;;;;;-141.02;100.00;47046.66;5113294;28;20197;-74
2024/01/09 03:10:51;;;;;;;18.93;18.13;;;;;;;-141.02;100.00;47004.38;5112999;28;20203;-74
2024/01/09 03:13:18;;;;;;;17.27;16.67;;;;;;;-141.02;100.00;46727.59;5112893;28;20682;-74
2024/01/09 03:15:45;;;;;;;18.77;18.07;;;;;;;-141.02;100.00;45872.44;5112861;28;20220;-74
2024/01/09 03:18:12;;;;;;;18.67;17.97;;;;;;;-141.02;100.00;46012.69;5112794;28;20774;-74
2024/01/09 03:20:39;;;;;;;20.40;19.60;;;;;;;-141.02;100.00;46302.88;5112875;28;20197;-74
2024/01/09 03:23:07;;;;;;;19.80;19.00;;;;;;;-141.02;100.00;46889.03;5113170;28;20190;-74
2024/01/09 03:25:34;;;;;;;18.27;17.57;;;;;;;-141.02;100.00;46973.63;5113113;28;20193;-75
2024/01/09 03:28:01;;;;;;;17.70;17.10;;;;;;;-141.02;100.00;47208.13;5113092;28;20285;-74
2024/01/09 03:30:29;;;;;;;16.57;15.97;;;;;;;-141.02;100.00;46671.84;5112715;28;20229;-74
2024/01/09 03:32:56;;;;;;;17.17;16.57;;;;;;;-141.02;100.00;46539.25;5112988;28;20717;-74
2024/01/09 03:35:23;;;;;;;17.20;16.60;;;;;;;-141.02;100.00;46197.19;5112579;28;20193;-75
2024/01/09 03:37:50;;;;;;;17.53;16.93;;;;;;;-141.02;100.00;45486.22;5111953;28;20200;-74
2024/01/09 03:40:18;;;;;;;17.77;17.10;;;;;;;-141.02;100.00;45109.69;5112137;28;20658;-74
2024/01/09 03:42:45;;;;;;;18.13;17.43;;;;;;;-141.02;100.00;45324.84;5112875;28;20193;-74
2024/01/09 03:45:12;;;;;;;19.67;18.87;;;;;;;-141.02;100.00;45347.91;5112800;28;20197;-74
2024/01/09 03:47:39;;;;;;;19.70;18.90;;;;;;;-141.02;100.00;45486.22;5112702;28;20284;-74
2024/01/09 03:50:07;;;;;;;18.53;17.83;;;;;;;-141.02;100.00;45939.69;5112859;28;20284;-74
2024/01/09 03:52:33;;;;;;;19.13;18.33;;;;;;;-141.02;100.00;45799.41;5112699;28;20204;-74
2024/01/09 03:55:00;;;;;;;19.47;18.67;;;;;;;-141.02;100.00;45949.28;5112422;28;20199;-74
2024/01/09 03:57:29;;;;;;;18.73;18.00;;;;;;;-141.02;100.00;45705.25;5112695;28;20189;-73
2024/01/09 03:59:56;;;;;;;19.80;19.00;;;;;;;-141.02;100.00;45522.75;5112581;28;20221;-74
2024/01/09 04:02:23;;;;;;;18.23;17.53;;;;;;;-141.02;100.00;45782.13;5112646;28;20219;-74
2024/01/09 04:04:49;;;;;;;18.43;17.63;;;;;;;-141.02;100.00;44867.66;5112603;28;20277;-75
2024/01/09 04:07:16;;;;;;;20.47;19.57;;;;;;;-141.02;100.00;44610.25;5112560;28;20197;-73
2024/01/09 04:09:43;;;;;;;20.50;19.60;;;;;;;-141.02;100.00;44483.47;5112320;28;20199;-74
2024/01/09 04:12:10;;;;;;;21.20;20.20;;;;;;;-141.02;100.00;44898.38;5112596;28;20193;-73
2024/01/09 04:14:39;;;;;;;16.77;16.17;;;;;;;-141.02;100.00;44683.25;5112025;28;20626;-74
2024/01/09 04:17:05;;;;;;;18.50;17.70;;;;;;;-141.02;100.00;44827.31;5112437;28;20232;-74
2024/01/09 04:19:32;;;;;;;17.27;16.57;;;;;;;-141.02;100.00;44564.16;5112354;28;20233;-73
2024/01/09 04:22:00;;;;;;;17.90;17.20;;;;;;;-141.02;100.00;44364.41;5112144;28;20726;-73
2024/01/09 04:24:27;;;;;;;18.03;17.33;;;;;;;-141.02;100.00;44794.66;5112094;28;20254;-74
2024/01/09 04:26:55;;;;;;;19.77;18.97;;;;;;;-141.02;100.00;44863.81;5112092;28;20284;-74
2024/01/09 04:29:21;;;;;;;18.00;17.30;;;;;;;-141.02;100.00;44963.69;5111991;28;20194;-74
2024/01/09 04:31:50;;;;;;;17.70;17.00;;;;;;;-141.02;100.00;44418.19;5112336;28;20200;-73
2024/01/09 04:34:17;;;;;;;18.77;18.03;;;;;;;-141.02;100.00;44464.28;5112292;28;20193;-73
2024/01/09 04:36:44;;;;;;;17.83;17.10;;;;;;;-141.02;100.00;43843.97;5112311;28;20201;-74
2024/01/09 04:39:11;;;;;;;18.70;17.90;;;;;;;-141.02;100.00;43899.66;5112216;28;20225;-73
2024/01/09 04:41:38;;;;;;;20.80;19.80;;;;;;;-141.02;100.00;43964.94;5112276;28;20274;-74
2024/01/09 04:44:05;;;;;;;20.90;19.90;;;;;;;-141.02;100.00;43327.44;5111985;28;20655;-73
2024/01/09 04:46:32;;;;;;;19.80;18.90;;;;;;;-141.02;100.00;43181.50;5111925;28;20200;-73
2024/01/09 04:49:03;;;;;;;19.47;18.63;;;;;;;-141.02;100.00;42841.69;5112241;28;20211;-73
2024/01/09 04:51:30;;;;;;;20.30;19.40;;;;;;;-141.02;100.00;43106.63;5115825;28;20189;-73
2024/01/09 04:53:57;;;;;;;19.00;18.20;;;;;;;-141.02;100.00;43319.75;5115977;28;20235;-73
2024/01/09 04:56:24;;;;;;;18.53;17.73;;;;;;;-141.02;100.00;43208.38;5115617;28;20232;-73
2024/01/09 04:58:53;;;;;;;18.67;17.87;;;;;;;-141.02;100.00;42643.97;5115476;28;20785;-73
2024/01/09 05:01:21;;;;;;;19.63;18.73;;;;;;;-141.02;100.00;42822.50;5115831;28;20193;-73
2024/01/09 05:03:49;;;;;;;20.60;19.60;;;;;;;-141.02;100.00;42582.53;5115792;28;20193;-74
2024/01/09 05:06:18;;;;;;;19.83;18.93;;;;;;;-141.02;100.00;42709.25;5115763;28;20288;-73
2024/01/09 05:08:45;;;;;;;19.33;18.43;;;;;;;-141.02;100.00;42947.28;5115360;28;20201;-73
2024/01/09 05:11:12;;;;;;;18.07;17.27;;;;;;;-141.02;100.00;42288.84;5115634;28;20231;-73
2024/01/09 05:13:39;;;;;;;18.10;17.30;;;;;;;-141.02;100.00;42323.41;5115253;28;20193;-72
2024/01/09 05:16:06;;;;;;;17.30;16.60;;;;;;;-141.02;100.00;42678.53;5115082;28;20233;-73
2024/01/09 05:18:34;;;;;;;17.53;16.83;;;;;;;-141.02;100.00;42286.94;5115452;28;20305;-73
2024/01/09 05:21:01;;;;;;;16.43;15.83;;;;;;;-141.02;100.00;42187.13;5115474;28;20280;-73
2024/01/09 05:23:30;;;;;;;17.80;17.10;;;;;;;-141.02;100.00;41747.63;5115411;28;20229;-73
2024/01/09 05:25:57;;;;;;;17.60;16.90;;;;;;;-141.02;100.00;41661.25;5115098;28;20743;-72
2024/01/09 05:28:24;;;;;;;19.23;18.37;;;;;;;-141.02;100.00;41283.22;5114953;28;20232;-72
2024/01/09 05:30:50;;;;;;;20.63;19.63;;;;;;;-141.02;100.00;41089.41;5115306;28;20189;-72
2024/01/09 05:33:18;;;;;;;20.73;19.73;;;;;;;-141.02;100.00;41039.53;5115165;28;20225;-72
2024/01/09 05:35:45;;;;;;;19.60;18.70;;;;;;;-141.02;100.00;40928.25;5114833;28;20716;-72
2024/01/09 05:38:12;;;;;;;20.20;19.30;;;;;;;-141.02;100.00;40834.22;5114775;28;20192;-71
2024/01/09 05:40:40;;;;;;;20.57;19.57;;;;;;;-141.02;100.00;40811.22;5115105;28;20280;-72
2024/01/09 05:43:07;;;;;;;19.60;18.70;;;;;;;-141.02;100.00;40778.59;5115016;28;20292;-72
2024/01/09 05:45:34;;;;;;;20.43;19.53;;;;;;;-141.02;100.00;40813.13;5114901;28;20296;-70
2024/01/09 05:48:01;;;;;;;19.03;18.23;;;;;;;-141.02;100.00;40943.59;5114913;28;20219;-71
2024/01/09 05:50:28;;;;;;;18.93;18.13;;;;;;;-141.02;100.00;40949.34;5114510;28;20197;-71
2024/01/09 05:52:55;;;;;;;19.73;18.83;;;;;;;-141.02;100.00;41022.25;5114508;28;20685;-72
2024/01/09 05:55:22;;;;;;;19.40;18.50;;;;;;;-141.02;100.00;41331.19;5114793;28;20219;-71
2024/01/09 05:57:50;;;;;;;18.53;17.73;;;;;;;-141.02;100.00;41384.91;5114652;28;20201;-71
2024/01/09 06:00:18;;;;;;;17.43;16.73;;;;;;;-141.02;100.00;41588.34;5114557;28;20320;-70
2024/01/09 06:02:45;;;;;;;16.90;16.20;;;;;;;-141.02;100.00;41626.72;5113541;28;20271;-69
2024/01/09 06:05:12;;;;;;;20.03;19.13;;;;;;;-141.02;100.00;41653.59;5114294;28;20667;-70
2024/01/09 06:07:39;;;;;;;18.27;17.47;;;;;;;-141.02;100.00;41857.00;5114214;28;20284;-70
2024/01/09 06:10:07;;;;;;;16.20;15.60;;;;;;;-141.02;100.00;42025.91;5114567;28;20573;-70
2024/01/09 06:12:34;;;;;;;16.90;16.20;;;;;;;-141.02;100.00;42010.53;5114414;28;20366;-71
2024/01/09 06:15:03;;;;;;;16.23;15.63;;;;;;;-141.02;100.00;42029.75;5114367;28;20670;-70
2024/01/09 06:17:30;;;;;;;17.37;16.67;;;;;;;-141.02;100.00;42187.13;5113984;28;20288;-70
2024/01/09 06:19:57;;;;;;;19.27;18.37;;;;;;;-141.02;100.00;42546.06;5114194;28;20307;-70
2024/01/09 06:22:24;;;;;;;19.87;18.97;;;;;;;-141.02;100.00;42885.84;5114237;28;20189;-72
2024/01/09 06:24:51;;;;;;;18.30;17.50;;;;;;;-141.02;100.00;43127.75;5114154;28;20280;-70
2024/01/09 06:27:18;;;;;;;17.17;16.47;;;;;;;-141.02;100.00;43333.19;5113807;28;20754;-72
2024/01/09 06:29:45;;;;;;;17.17;16.47;;;;;;;-141.02;100.00;43696.09;5113725;28;20200;-70
2024/01/09 06:32:13;;;;;;;17.63;16.93;;;;;;;-141.02;100.00;43772.91;5113706;28;20284;-71
2024/01/09 06:34:40;;;;;;;17.60;16.90;;;;;;;-141.02;100.00;43899.66;5114051;28;20188;-71
2024/01/09 06:37:07;;;;;;;18.90;18.10;;;;;;;-141.02;100.00;43899.66;5113631;28;20239;-70
2024/01/09 06:39:36;;;;;;;19.13;18.33;;;;;;;-141.02;100.00;43824.75;5113687;28;20229;-71
2024/01/09 06:42:03;;;;;;;18.10;17.40;;;;;;;-141.02;100.00;43715.28;5113808;28;20287;-71
2024/01/09 06:44:30;;;;;;;17.00;16.30;;;;;;;-141.02;100.00;44185.78;5113712;28;20288;-70
2024/01/09 06:46:57;;;;;;;17.17;16.47;;;;;;;-141.02;100.00;44009.09;5113450;28;20196;-71
2024/01/09 06:49:25;;;;;;;16.60;16.00;;;;;;;-141.02;100.00;44195.41;5113397;28;20291;-70
2024/01/09 06:51:53;;;;;;;15.60;15.00;;;;;;;-141.02;100.00;43867.00;5113630;28;20230;-73
2024/01/09 06:54:20;;;;;;;14.90;14.30;;;;;;;-141.02;100.00;43651.94;5113347;28;20590;-70
2024/01/09 06:56:47;;;;;;;17.00;16.30;;;;;;;-141.02;100.00;43640.41;5113581;28;20411;-71
2024/01/09 06:59:14;;;;;;;16.63;15.97;;;;;;;-141.02;100.00;43577.03;5113534;28;20263;-71
2024/01/09 07:01:41;;;;;;;19.07;18.33;;;;;;;-141.02;100.00;43588.56;5113471;28;20193;-70
2024/01/09 07:04:09;;;;;;;17.43;16.83;;;;;;;-141.02;100.00;43744.09;5113449;28;20626;-71
2024/01/09 07:06:38;;;;;;;15.13;14.63;;;;;;;-141.02;100.00;43905.41;5113398;28;20290;-71
2024/01/09 07:09:04;;;;;;;16.83;16.23;;;;;;;-141.02;100.00;44155.06;5113310;28;20276;-72
2024/01/09 07:11:31;;;;;;;17.50;16.80;;;;;;;-141.02;100.00;44122.41;5113060;28;20726;-73
2024/01/09 07:13:58;;;;;;;18.00;17.30;;;;;;;-141.02;100.00;44107.06;5113073;28;20276;-70
2024/01/09 07:16:25;;;;;;;16.47;15.87;;;;;;;-141.02;100.00;44180.03;5114225;28;20567;-71
2024/01/09 07:18:52;;;;;;;16.40;15.80;;;;;;;-141.02;100.00;44498.84;5113115;28;20219;-71
2024/01/09 07:21:19;;;;;;;16.10;15.50;;;;;;;-141.02;100.00;44602.56;5112820;28;20288;-71
2024/01/09 07:23:47;;;;;;;16.00;15.40;;;;;;;-141.02;100.00;44802.34;5112802;28;20203;-72
2024/01/09 07:26:14;;;;;;;16.40;15.80;;;;;;;-141.02;100.00;45002.09;5112732;28;20288;-71
2024/01/09 07:28:42;;;;;;;17.73;17.03;;;;;;;-141.02;100.00;45169.25;5112748;28;20228;-70
2024/01/09 07:31:09;;;;;;;18.20;17.50;;;;;;;-141.02;100.00;45117.38;5112979;28;20223;-71
2024/01/09 07:33:36;;;;;;;16.57;15.97;;;;;;;-141.02;100.00;45044.38;5112937;28;20193;-71
2024/01/09 07:36:03;;;;;;;16.00;15.40;;;;;;;-141.02;100.00;44998.28;5112965;28;20225;-70
2024/01/09 07:38:30;;;;;;;16.20;15.60;;;;;;;-141.02;100.00;45244.16;5113226;28;20208;-70
2024/01/09 07:40:58;;;;;;;15.67;15.07;;;;;;;-141.02;100.00;45267.22;5112570;28;20228;-71
2024/01/09 07:43:25;;;;;;;14.90;14.30;;;;;;;-141.02;100.00;45697.56;5112787;28;20189;-72
2024/01/09 07:45:52;;;;;;;15.43;14.83;;;;;;;-141.02;100.00;46012.69;5112529;28;20280;-71
2024/01/09 07:48:19;;;;;;;15.60;15.00;;;;;;;-141.02;100.00;45932.00;5112848;28;20197;-72
2024/01/09 07:50:46;;;;;;;13.87;13.37;;;;;;;-141.02;100.00;46243.28;5112734;28;20200;-72
2024/01/09 07:53:13;;;;;;;14.90;14.30;;;;;;;-141.02;100.00;46245.22;5112767;28;20275;-71
2024/01/09 07:55:40;;;;;;;15.10;14.50;;;;;;;-141.02;100.00;45843.59;5112691;28;20200;-71
2024/01/09 07:58:08;;;;;;;17.60;16.90;;;;;;;-141.02;100.00;45851.28;5112725;28;20200;-73
2024/01/09 08:00:35;;;;;;;16.93;16.23;;;;;;;-141.02;100.00;45359.44;5112309;28;20827;-71
2024/01/09 08:03:05;;;;;;;16.93;16.23;;;;;;;-141.02;100.00;45566.94;5112667;28;20272;-72
2024/01/09 08:05:32;;;;;;;16.60;16.00;;;;;;;-141.02;100.00;45739.84;5112346;28;20216;-73
2024/01/09 08:07:59;;;;;;;17.07;16.37;;;;;;;-141.02;100.00;45628.41;5112337;28;20196;-72
2024/01/09 08:10:26;;;;;;;16.63;15.93;;;;;;;-141.02;100.00;45739.84;5112315;28;20726;-72
2024/01/09 08:12:53;;;;;;;17.43;16.73;;;;;;;-141.02;100.00;45868.59;5112515;28;20200;-67
2024/01/09 08:15:22;;;;;;;17.20;16.50;;;;;;;-141.02;100.00;45843.59;5112188;28;20332;-72
2024/01/09 08:17:49;;;;;;;16.83;16.13;;;;;;;-141.02;100.00;45820.56;5112434;28;20190;-73
2024/01/09 08:20:16;;;;;;;16.70;16.00;;;;;;;-141.02;100.00;46012.69;5112401;28;20312;-72
2024/01/09 08:22:43;;;;;;;17.60;16.80;;;;;;;-141.02;100.00;45939.69;5112196;28;20283;-73
2024/01/09 08:25:10;;;;;;;17.60;16.90;;;;;;;-141.02;100.00;45951.22;5113914;28;20197;-72
2024/01/09 08:27:36;;;;;;;17.87;17.07;;;;;;;-141.02;100.00;45755.22;5116197;28;20731;-72
2024/01/09 08:30:04;;;;;;;17.70;16.90;;;;;;;-141.02;100.00;45338.31;5116443;28;20283;-73
2024/01/09 08:32:32;;;;;;;18.73;17.83;;;;;;;-141.02;100.00;45324.84;5116131;28;20738;-71
2024/01/09 08:34:59;;;;;;;18.20;17.40;;;;;;;-141.02;100.00;44898.38;5116327;28;20201;-73
2024/01/09 08:37:26;;;;;;;17.87;17.07;;;;;;;-141.02;100.00;44902.22;5115983;28;20250;-72
2024/01/09 08:39:53;;;;;;;17.90;17.00;;;;;;;-141.02;100.00;44785.03;5116152;28;20229;-72
2024/01/09 08:42:20;;;;;;;17.40;16.60;;;;;;;-141.02;100.00;44967.53;5116104;28;20254;-73
2024/01/09 08:44:47;;;;;;;18.33;17.53;;;;;;;-141.02;100.00;44913.75;5115819;28;20232;-72
2024/01/09 08:47:14;;;;;;;19.07;18.17;;;;;;;-141.02;100.00;45069.34;5116142;28;20280;-71
2024/01/09 08:49:43;;;;;;;21.77;20.73;;;;;;;-141.02;100.00;44829.22;5116052;28;20272;-73
2024/01/09 08:52:10;;;;;;;19.57;18.67;;;;;;;-141.02;100.00;45238.41;5115764;28;20633;-73
2024/01/09 08:54:37;;;;;;;18.73;17.93;;;;;;;-141.02;100.00;45538.09;5115949;28;20296;-72
2024/01/09 08:57:05;;;;;;;20.30;19.33;;;;;;;-141.02;100.00;45743.69;5115638;28;20235;-73
2024/01/09 08:59:32;;;;;;;20.90;19.90;;;;;;;-141.02;100.00;45474.72;5115797;27;20189;-73
2024/01/09 09:01:58;;;;;;;20.30;19.30;;;;;;;-141.02;100.00;45486.22;5115570;28;20197;-73
2024/01/09 09:04:25;;;;;;;20.80;19.70;;;;;;;-141.02;100.00;44810.00;5115459;28;20677;-74
2024/01/09 09:06:54;;;;;;;18.13;17.33;;;;;;;-141.02;100.00;45111.59;5115381;28;20285;-73
2024/01/09 09:09:21;;;;;;;23.00;21.90;;;;;;;-141.02;100.00;44767.75;5115355;28;20189;-74
2024/01/09 09:11:48;;;;;;;22.20;21.20;;;;;;;-141.02;100.00;44712.06;5115279;28;20200;-73
2024/01/09 09:14:15;;;;;;;18.90;18.00;;;;;;;-141.02;100.00;44575.69;5115411;28;20193;-71
2024/01/09 09:16:43;;;;;;;17.90;17.10;;;;;;;-141.02;100.00;44552.63;5115587;28;20192;-73
2024/01/09 09:19:10;;;;;;;19.37;18.47;;;;;;;-141.02;100.00;44662.13;5115223;28;20738;-74
2024/01/09 09:21:37;;;;;;;17.80;16.90;;;;;;;-141.02;100.00;44621.78;5115393;28;20267;-73
2024/01/09 09:24:06;;;;;;;17.40;16.50;;;;;;;-141.02;100.00;44806.19;5115046;28;20193;-73
2024/01/09 09:26:33;;;;;;;18.50;17.50;;;;;;;-141.02;100.00;44493.09;5115342;28;20276;-74
2024/01/09 09:28:59;;;;;;;19.80;18.80;;;;;;;-141.02;100.00;44671.72;5115315;28;20200;-74
2024/01/09 09:31:27;;;;;;;19.70;18.60;;;;;;;-141.02;100.00;44433.53;5116105;28;20199;-74
2024/01/09 09:33:54;;;;;;;19.57;18.57;;;;;;;-141.02;100.00;44416.25;5114917;28;20200;-75
2024/01/09 09:36:20;;;;;;;22.83;21.50;;;;;;;-141.02;100.00;44068.63;5114748;28;20747;-75
2024/01/09 09:38:47;;;;;;;26.03;24.63;;;;;;;-141.02;100.00;44241.47;5114852;28;20284;-74
2024/01/09 09:41:18;;;;;;;22.40;21.20;;;;;;;-141.02;100.00;44306.78;5114789;28;20264;-74
2024/01/09 09:43:50;;;;;;;22.07;20.87;;;;;;;-141.02;100.00;44128.19;5115157;28;20291;-73
2024/01/09 09:46:26;;;;;;;21.30;20.10;;;;;;;-141.02;100.00;44178.09;5114695;28;20197;-73
2024/01/09 09:48:54;;;;;;;23.07;21.77;;;;;;;-141.02;100.00;44014.88;5114673;28;20743;-73
2024/01/09 09:51:22;;;;;;;20.83;19.63;;;;;;;-141.02;100.00;44172.34;5114858;28;20193;-74
2024/01/09 09:53:49;;;;;;;20.60;19.50;;;;;;;-141.02;100.00;44183.88;5114533;28;20288;-74
2024/01/09 09:56:17;;;;;;;25.37;23.97;;;;;;;-141.02;100.00;44076.31;5114487;28;20237;-70
2024/01/09 09:58:44;;;;;;;27.80;26.20;;;;;;;-141.02;100.00;43857.41;5114376;28;20237;-75
2024/01/09 10:01:13;;;;;;;22.67;21.37;;;;;;;-141.02;100.00;43657.69;5114620;28;20225;-74
2024/01/09 10:03:49;;;;;;;22.63;21.33;;;;;;;-141.02;100.00;43454.16;5115122;28;20656;-74
2024/01/09 10:06:17;;;;;;;22.07;20.83;;;;;;;-141.02;100.00;43538.63;5114679;28;20235;-73
2024/01/09 10:08:48;;;;;;;21.87;20.67;;;;;;;-141.02;100.00;43669.22;5114891;28;20205;-74
2024/01/09 10:11:15;;;;;;;19.70;18.50;;;;;;;-141.02;100.00;43578.97;5114817;28;20189;-73
2024/01/09 10:13:44;;;;;;;20.60;19.40;;;;;;;-141.02;100.00;43350.47;5114189;28;20223;-74
2024/01/09 10:16:12;;;;;;;20.20;19.00;;;;;;;-141.02;100.00;43417.66;5114103;28;20259;-74
2024/01/09 10:18:39;;;;;;;20.43;19.23;;;;;;;-141.02;100.00;43254.47;5114388;28;20206;-74
2024/01/09 10:21:07;;;;;;;22.63;21.27;;;;;;;-141.02;100.00;43085.50;5114226;28;20233;-75
2024/01/09 10:23:38;;;;;;;19.20;18.10;;;;;;;-141.02;100.00;43020.25;5113996;28;20204;-74
2024/01/09 10:26:11;;;;;;;20.30;19.10;;;;;;;-141.02;100.00;42764.91;5113915;28;20225;-74
2024/01/09 10:28:38;;;;;;;23.27;21.97;;;;;;;-141.02;100.00;42715.00;5114144;28;20583;-74
2024/01/09 10:31:09;;;;;;;21.47;20.27;;;;;;;-141.02;100.00;42839.78;5113761;28;20229;-74
2024/01/09 10:33:39;;;;;;;22.47;21.27;;;;;;;-141.02;100.00;42843.63;5114132;28;20618;-75
2024/01/09 10:36:06;;;;;;;23.13;21.83;;;;;;;-141.02;100.00;42720.75;5113718;28;20190;-74
2024/01/09 10:38:34;;;;;;;23.33;22.03;;;;;;;-141.02;100.00;42814.81;5113930;28;20221;-75
2024/01/09 10:41:15;;;;;;;22.90;21.50;;;;;;;-141.02;100.00;42743.78;5113559;28;20229;-76
2024/01/09 10:43:42;;;;;;;23.07;21.77;;;;;;;-141.02;100.00;42686.19;5113884;28;20192;-75
2024/01/09 10:46:10;;;;;;;21.93;20.73;;;;;;;-141.02;100.00;42924.25;5113522;28;20228;-75
2024/01/09 10:48:39;;;;;;;21.83;20.63;;;;;;;-141.02;100.00;42939.59;5113158;28;20193;-75
2024/01/09 10:51:08;;;;;;;23.03;21.73;;;;;;;-141.02;100.00;42655.47;5113717;28;20193;-75
2024/01/09 10:53:37;;;;;;;22.07;20.77;;;;;;;-141.02;100.00;42643.97;5113682;28;20224;-74
2024/01/09 10:56:09;;;;;;;23.63;22.33;;;;;;;-141.02;100.00;42609.41;5113580;28;20198;-75